Terminal Aerodrome Forecast
Issued by NWS

Home | Current Version | Previous Version | Text Only | Print | Product List | Glossary On
Versions: 1 2 3 4 5 6 7 8 9 10 11 12 13 14 15 16 17 18 19 20 21
000
FTUS43 KAPX 262323
TAFMBL
TAF
KMBL 262323Z 2700/2724 VRB03KT P6SM SCT250
     FM270600 VRB03KT P6SM BKN110
     FM271100 12005KT P6SM SHRA OVC070
     FM271300 12005KT P6SM SHRA OVC045
     FM271600 14005KT 5SM SHRA OVC015
     FM272300 16006KT P6SM SHRA OVC050=

USA.gov is the U.S. government's official web portal to all federal, state and local government web resources and services.